createdAt,value
2024-02-27T00:02:34.055Z,101987.22
2024-02-27T00:05:21.063Z,101989.91
2024-02-27T00:08:08.139Z,101988.88
2024-02-27T00:10:55.364Z,101986.28
2024-02-27T00:13:42.293Z,101997.56
2024-02-27T00:16:29.188Z,102000.34
2024-02-27T00:19:16.188Z,102001.25
2024-02-27T00:22:03.213Z,102001.28
2024-02-27T00:24:50.011Z,102009.09
2024-02-27T00:27:37.008Z,102009.81
2024-02-27T00:30:25.251Z,102022.94
2024-02-27T00:33:12.401Z,102022.16
2024-02-27T00:36:02.099Z,102019.31
2024-02-27T00:38:49.080Z,102012.31
2024-02-27T00:41:39.557Z,102024.69
2024-02-27T00:44:26.467Z,102024.66
2024-02-27T00:47:14.148Z,102037.03
2024-02-27T00:50:01.141Z,102042.31
2024-02-27T00:52:48.078Z,102039.81
2024-02-27T00:55:34.909Z,102039.63
2024-02-27T00:58:24.039Z,102034.28
2024-02-27T01:01:11.610Z,102032.53
2024-02-27T01:03:58.541Z,102030.88
2024-02-27T01:06:46.324Z,102029.25
2024-02-27T01:09:35.309Z,102040.34
2024-02-27T01:12:22.450Z,102030.03
2024-02-27T01:15:10.056Z,102031.00
2024-02-27T01:17:57.187Z,102033.50
2024-02-27T01:20:44.165Z,102030.81
2024-02-27T01:23:30.953Z,102030.72
2024-02-27T01:26:17.843Z,102029.00
2024-02-27T01:29:04.827Z,102025.91
2024-02-27T01:31:51.598Z,102035.31
2024-02-27T01:34:39.020Z,102040.50
2024-02-27T01:37:26.316Z,102035.25
2024-02-27T01:40:13.792Z,102030.72
2024-02-27T01:43:00.728Z,102033.25
2024-02-27T01:45:48.179Z,102036.94
2024-02-27T01:48:35.519Z,102037.28
2024-02-27T01:51:23.792Z,102041.44
2024-02-27T01:54:12.671Z,102050.25
2024-02-27T01:56:59.714Z,102044.78
2024-02-27T01:59:47.373Z,102045.69
2024-02-27T02:02:36.170Z,102046.59
2024-02-27T02:05:23.658Z,102049.06
2024-02-27T02:08:10.705Z,102043.09
2024-02-27T02:10:58.157Z,102049.09
2024-02-27T02:13:46.134Z,102057.03
2024-02-27T02:16:33.043Z,102052.63
2024-02-27T02:19:20.094Z,102057.69
2024-02-27T02:22:07.478Z,102061.31
2024-02-27T02:24:54.554Z,102058.72
2024-02-27T02:27:45.116Z,102064.16
2024-02-27T02:30:32.426Z,102063.06
2024-02-27T02:33:20.436Z,102063.19
2024-02-27T02:36:07.831Z,102066.75
2024-02-27T02:38:54.781Z,102071.00
2024-02-27T02:41:41.621Z,102062.94
2024-02-27T02:44:28.605Z,102059.63
2024-02-27T02:47:15.426Z,102060.41
2024-02-27T02:50:02.666Z,102064.06
2024-02-27T02:52:49.817Z,102051.03
2024-02-27T02:55:36.712Z,102053.88
2024-02-27T02:58:23.610Z,102060.16
2024-02-27T03:01:10.563Z,102060.16
2024-02-27T03:03:57.430Z,102066.94
2024-02-27T03:06:44.448Z,102059.84
2024-02-27T03:09:32.508Z,102058.19
2024-02-27T03:12:19.783Z,102053.84
2024-02-27T03:15:07.766Z,102062.50
2024-02-27T03:17:54.800Z,102060.66
2024-02-27T03:20:41.746Z,102063.41
2024-02-27T03:23:28.667Z,102067.72
2024-02-27T03:26:17.412Z,102062.47
2024-02-27T03:29:04.509Z,102063.44
2024-02-27T03:31:51.452Z,102071.34
2024-02-27T03:34:38.380Z,102072.28
2024-02-27T03:37:25.391Z,102074.75
2024-02-27T03:40:12.418Z,102076.59
2024-02-27T03:42:59.372Z,102074.94
2024-02-27T03:45:46.545Z,102068.75
2024-02-27T03:48:33.705Z,102081.03
2024-02-27T03:51:20.672Z,102082.06
2024-02-27T03:54:07.585Z,102089.03
2024-02-27T03:56:54.531Z,102095.09
2024-02-27T03:59:41.364Z,102102.03
2024-02-27T04:02:28.297Z,102094.38
2024-02-27T04:05:15.442Z,102100.66
2024-02-27T04:08:02.459Z,102107.59
2024-02-27T04:10:49.228Z,102113.63
2024-02-27T04:13:36.547Z,102118.09
2024-02-27T04:16:23.993Z,102115.31
2024-02-27T04:19:11.149Z,102117.94
2024-02-27T04:21:58.239Z,102126.72
2024-02-27T04:24:45.024Z,102131.88
2024-02-27T04:27:31.937Z,102132.66
2024-02-27T04:30:18.901Z,102143.16
2024-02-27T04:33:06.006Z,102132.53
2024-02-27T04:35:53.062Z,102129.13
2024-02-27T04:38:41.119Z,102138.53
2024-02-27T04:41:28.005Z,102133.44
2024-02-27T04:44:14.878Z,102142.16
2024-02-27T04:47:01.878Z,102137.78
2024-02-27T04:49:48.742Z,102144.84
2024-02-27T04:52:35.737Z,102141.28
2024-02-27T04:55:22.473Z,102140.19
2024-02-27T04:58:09.483Z,102143.06
2024-02-27T05:00:56.384Z,102143.75
2024-02-27T05:03:43.465Z,102160.44
2024-02-27T05:06:30.495Z,102157.97
2024-02-27T05:09:17.379Z,102164.09
2024-02-27T05:12:04.629Z,102157.06
2024-02-27T05:14:51.847Z,102164.13
2024-02-27T05:17:38.876Z,102164.25
2024-02-27T05:20:25.779Z,102166.06
2024-02-27T05:23:12.837Z,102180.19
2024-02-27T05:26:00.282Z,102163.47
2024-02-27T05:28:47.460Z,102164.38
2024-02-27T05:31:36.886Z,102158.19
2024-02-27T05:34:23.948Z,102158.28
2024-02-27T05:37:10.926Z,102159.22
2024-02-27T05:39:57.698Z,102159.03
2024-02-27T05:42:44.783Z,102157.28
2024-02-27T05:45:32.804Z,102158.31
2024-02-27T05:48:19.986Z,102150.38
2024-02-27T05:51:07.350Z,102161.13
2024-02-27T05:53:54.914Z,102158.44
2024-02-27T05:56:41.812Z,102170.72
2024-02-27T05:59:28.732Z,102166.31
2024-02-27T06:02:16.302Z,102153.25
2024-02-27T06:05:03.943Z,102161.13
2024-02-27T06:07:52.964Z,102159.63
2024-02-27T06:10:41.007Z,102164.59
2024-02-27T06:13:30.415Z,102163.00
2024-02-27T06:16:18.056Z,102155.28
2024-02-27T06:19:05.035Z,102158.75
2024-02-27T06:22:10.457Z,102161.28
2024-02-27T06:24:57.514Z,102157.72
2024-02-27T06:27:44.573Z,102145.44
2024-02-27T06:30:31.720Z,102142.88
2024-02-27T06:33:18.817Z,102151.63
2024-02-27T06:36:06.485Z,102158.16
2024-02-27T06:38:58.032Z,102157.88
2024-02-27T06:41:52.075Z,102159.56
2024-02-27T06:44:40.079Z,102164.97
2024-02-27T06:47:27.007Z,102161.59
2024-02-27T06:50:14.287Z,102171.13
2024-02-27T06:53:01.529Z,102168.63
2024-02-27T06:55:49.385Z,102184.25
2024-02-27T06:58:36.403Z,102190.97
2024-02-27T07:01:24.973Z,102198.06
2024-02-27T07:04:12.008Z,102194.59
2024-02-27T07:06:58.921Z,102204.28
2024-02-27T07:09:45.926Z,102206.00
2024-02-27T07:12:34.675Z,102209.50
2024-02-27T07:15:21.976Z,102214.72
2024-02-27T07:18:09.197Z,102215.63
2024-02-27T07:20:57.315Z,102214.66
2024-02-27T07:23:44.680Z,102211.16
2024-02-27T07:26:31.551Z,102217.28
2024-02-27T07:29:18.520Z,102213.88
2024-02-27T07:32:05.591Z,102209.41
2024-02-27T07:34:52.794Z,102210.38
2024-02-27T07:37:40.836Z,102223.97
2024-02-27T07:40:27.772Z,102225.53
2024-02-27T07:43:14.677Z,102234.97
2024-02-27T07:46:01.619Z,102236.72
2024-02-27T07:48:48.670Z,102234.28
2024-02-27T07:51:36.141Z,102243.72
2024-02-27T07:54:23.512Z,102249.16
2024-02-27T07:57:10.560Z,102242.06
2024-02-27T07:59:59.201Z,102248.88
2024-02-27T08:02:47.765Z,102259.50
2024-02-27T08:05:34.870Z,102255.00
2024-02-27T08:08:23.641Z,102252.66
2024-02-27T08:11:10.571Z,102253.34
2024-02-27T08:13:59.055Z,102248.91
2024-02-27T08:16:46.336Z,102241.75
2024-02-27T08:19:33.384Z,102243.53
2024-02-27T08:22:20.400Z,102239.88
2024-02-27T08:25:07.777Z,102239.97
2024-02-27T08:27:54.718Z,102235.66
2024-02-27T08:30:41.725Z,102244.28
2024-02-27T08:33:28.777Z,102235.56
2024-02-27T08:36:15.938Z,102238.16
2024-02-27T08:39:03.958Z,102237.13
2024-02-27T08:41:51.027Z,102236.25
2024-02-27T08:44:38.009Z,102247.59
2024-02-27T08:47:26.359Z,102248.63
2024-02-27T08:50:14.169Z,102247.69
2024-02-27T08:53:01.218Z,102240.75
2024-02-27T08:55:48.224Z,102244.94
2024-02-27T08:58:35.351Z,102241.44
2024-02-27T09:01:22.275Z,102247.69
2024-02-27T09:04:09.219Z,102234.41
2024-02-27T09:06:56.292Z,102239.44
2024-02-27T09:09:47.177Z,102247.56
2024-02-27T09:12:34.268Z,102243.03
2024-02-27T09:15:21.343Z,102236.69
2024-02-27T09:18:08.534Z,102245.50
2024-02-27T09:20:55.560Z,102236.84
2024-02-27T09:23:42.459Z,102243.72
2024-02-27T09:26:29.495Z,102244.50
2024-02-27T09:29:16.514Z,102249.44
2024-02-27T09:32:03.824Z,102249.94
2024-02-27T09:34:52.010Z,102247.09
2024-02-27T09:37:39.077Z,102249.59
2024-02-27T09:40:26.218Z,102242.88
2024-02-27T09:43:23.992Z,102239.16
2024-02-27T09:46:11.842Z,102248.44
2024-02-27T09:49:02.622Z,102250.00
2024-02-27T09:51:51.144Z,102258.06
2024-02-27T09:54:42.565Z,102261.63
2024-02-27T09:57:30.765Z,102264.47
2024-02-27T10:00:18.425Z,102256.69
2024-02-27T10:03:08.628Z,102246.09
2024-02-27T10:05:56.738Z,102250.56
2024-02-27T10:08:48.240Z,102246.09
2024-02-27T10:11:35.245Z,102252.03
2024-02-27T10:14:31.692Z,102262.56
2024-02-27T10:17:20.169Z,102260.72
2024-02-27T10:20:12.069Z,102268.44
2024-02-27T10:22:59.493Z,102269.91
2024-02-27T10:25:46.484Z,102274.19
2024-02-27T10:28:34.286Z,102272.63
2024-02-27T10:31:21.284Z,102266.50
2024-02-27T10:34:08.408Z,102271.06
2024-02-27T10:37:00.070Z,102262.78
2024-02-27T10:39:48.379Z,102253.41
2024-02-27T10:42:38.404Z,102246.50
2024-02-27T10:45:25.731Z,102248.97
2024-02-27T10:48:12.686Z,102248.22
2024-02-27T10:50:59.544Z,102240.06
2024-02-27T10:53:51.638Z,102239.94
2024-02-27T10:56:40.830Z,102237.06
2024-02-27T10:59:31.080Z,102245.75
2024-02-27T11:02:19.781Z,102241.63
2024-02-27T11:05:07.245Z,102241.63
2024-02-27T11:07:58.812Z,102239.38
2024-02-27T11:10:46.612Z,102234.22
2024-02-27T11:13:34.832Z,102243.13
2024-02-27T11:16:24.609Z,102239.84
2024-02-27T11:19:18.061Z,102233.44
2024-02-27T11:22:06.201Z,102235.16
2024-02-27T11:24:53.318Z,102237.88
2024-02-27T11:27:41.652Z,102238.19
2024-02-27T11:30:30.136Z,102232.03
2024-02-27T11:33:21.798Z,102237.69
2024-02-27T11:36:09.613Z,102234.16
2024-02-27T11:38:56.507Z,102228.19
2024-02-27T11:41:43.453Z,102231.00
2024-02-27T11:44:30.631Z,102226.41
2024-02-27T11:47:50.587Z,102221.72
2024-02-27T11:50:38.045Z,102227.63
2024-02-27T11:53:32.886Z,102230.53
2024-02-27T11:56:19.978Z,102220.03
2024-02-27T11:59:07.590Z,102220.03
2024-02-27T12:02:05.347Z,102210.69
2024-02-27T12:04:52.667Z,102213.38
2024-02-27T12:07:39.907Z,102208.84
2024-02-27T12:10:27.446Z,102203.03
2024-02-27T12:13:14.556Z,102207.06
2024-02-27T12:16:02.314Z,102205.16
2024-02-27T12:18:49.538Z,102194.81
2024-02-27T12:21:36.962Z,102202.75
2024-02-27T12:24:23.854Z,102195.03
2024-02-27T12:27:10.857Z,102193.38
2024-02-27T12:29:58.027Z,102194.94
2024-02-27T12:32:45.538Z,102181.00
2024-02-27T12:35:32.698Z,102171.41
2024-02-27T12:38:19.694Z,102172.13
2024-02-27T12:41:07.594Z,102165.06
2024-02-27T12:43:54.721Z,102178.09
2024-02-27T12:46:41.914Z,102182.75
2024-02-27T12:49:29.470Z,102196.22
2024-02-27T12:52:20.359Z,102198.47
2024-02-27T12:55:09.521Z,102190.50
2024-02-27T12:57:57.910Z,102192.13
2024-02-27T13:00:46.620Z,102175.50
2024-02-27T13:03:36.492Z,102178.81
2024-02-27T13:06:24.415Z,102172.00
2024-02-27T13:09:13.569Z,102175.84
2024-02-27T13:12:15.394Z,102176.50
2024-02-27T13:15:02.628Z,102160.19
2024-02-27T13:17:49.657Z,102167.38
2024-02-27T13:20:37.541Z,102168.00
2024-02-27T13:23:26.697Z,102173.81
2024-02-27T13:26:14.123Z,102163.47
2024-02-27T13:29:00.904Z,102169.16
2024-02-27T13:31:48.459Z,102165.66
2024-02-27T13:34:35.746Z,102163.69
2024-02-27T13:37:22.857Z,102157.47
2024-02-27T13:40:10.302Z,102165.00
2024-02-27T13:42:57.461Z,102173.78
2024-02-27T13:45:44.453Z,102171.72
2024-02-27T13:48:31.454Z,102164.78
2024-02-27T13:51:18.422Z,102171.06
2024-02-27T13:54:07.064Z,102172.78
2024-02-27T13:56:54.061Z,102165.97
2024-02-27T13:59:41.087Z,102164.47
2024-02-27T14:02:28.032Z,102167.81
2024-02-27T14:05:15.405Z,102177.22
2024-02-27T14:08:02.380Z,102167.50
2024-02-27T14:10:49.708Z,102158.78
2024-02-27T14:13:39.165Z,102151.09
2024-02-27T14:16:27.893Z,102158.88
2024-02-27T14:19:14.886Z,102158.97
2024-02-27T14:22:01.974Z,102159.88
2024-02-27T14:24:51.547Z,102156.38
2024-02-27T14:27:38.478Z,102154.44
2024-02-27T14:30:25.437Z,102152.75
2024-02-27T14:33:12.496Z,102154.38
2024-02-27T14:35:59.677Z,102139.72
2024-02-27T14:38:46.746Z,102140.44
2024-02-27T14:41:35.295Z,102139.56
2024-02-27T14:44:22.241Z,102138.81
2024-02-27T14:47:09.169Z,102137.06
2024-02-27T14:49:56.209Z,102130.00
2024-02-27T14:52:43.167Z,102122.63
2024-02-27T14:55:29.998Z,102117.25
2024-02-27T14:58:18.096Z,102127.13
2024-02-27T15:01:08.044Z,102118.03
2024-02-27T15:03:58.276Z,102121.63
2024-02-27T15:06:45.784Z,102127.53
2024-02-27T15:09:33.088Z,102127.63
2024-02-27T15:12:23.254Z,102119.75
2024-02-27T15:15:11.518Z,102123.13
2024-02-27T15:17:58.816Z,102119.44
2024-02-27T15:20:45.737Z,102115.84
2024-02-27T15:23:32.575Z,102119.00
2024-02-27T15:26:19.571Z,102122.50
2024-02-27T15:29:06.578Z,102122.19
2024-02-27T15:31:53.660Z,102107.19
2024-02-27T15:34:41.016Z,102121.13
2024-02-27T15:37:29.550Z,102119.56
2024-02-27T15:40:16.592Z,102116.00
2024-02-27T15:43:03.847Z,102123.16
2024-02-27T15:45:50.915Z,102124.13
2024-02-27T15:48:38.541Z,102128.47
2024-02-27T15:51:25.647Z,102130.25
2024-02-27T15:54:12.752Z,102132.13
2024-02-27T15:56:59.829Z,102131.41
2024-02-27T15:59:46.845Z,102128.81
2024-02-27T16:02:34.770Z,102133.00
2024-02-27T16:05:28.027Z,102133.91
2024-02-27T16:08:15.081Z,102132.13
2024-02-27T16:11:02.893Z,102126.03
2024-02-27T16:13:49.837Z,102129.81
2024-02-27T16:16:36.721Z,102121.25
2024-02-27T16:19:23.756Z,102124.78
2024-02-27T16:22:12.238Z,102119.38
2024-02-27T16:24:59.310Z,102126.56
2024-02-27T16:27:46.475Z,102119.47
2024-02-27T16:30:33.563Z,102119.63
2024-02-27T16:33:21.029Z,102121.44
2024-02-27T16:36:09.000Z,102128.91
2024-02-27T16:38:56.283Z,102126.31
2024-02-27T16:41:44.320Z,102126.34
2024-02-27T16:44:31.395Z,102129.22
2024-02-27T16:47:19.596Z,102127.50
2024-02-27T16:50:07.174Z,102131.28
2024-02-27T16:52:54.373Z,102127.00
2024-02-27T16:55:41.363Z,102127.09
2024-02-27T16:58:28.268Z,102133.41
2024-02-27T17:01:15.374Z,102137.97
2024-02-27T17:04:02.581Z,102151.09
2024-02-27T17:06:49.780Z,102154.59
2024-02-27T17:09:36.829Z,102156.63
2024-02-27T17:12:23.786Z,102159.34
2024-02-27T17:15:11.199Z,102160.34
2024-02-27T17:17:58.290Z,102156.13
2024-02-27T17:20:45.372Z,102157.94
2024-02-27T17:23:32.310Z,102149.31
2024-02-27T17:26:19.298Z,102152.00
2024-02-27T17:29:06.231Z,102146.84
2024-02-27T17:31:53.032Z,102144.28
2024-02-27T17:34:42.229Z,102133.00
2024-02-27T17:37:29.530Z,102135.69
2024-02-27T17:40:16.577Z,102146.31
2024-02-27T17:43:03.736Z,102149.25
2024-02-27T17:45:51.654Z,102162.56
2024-02-27T17:48:39.026Z,102160.91
2024-02-27T17:51:26.169Z,102159.09
2024-02-27T17:54:13.157Z,102164.50
2024-02-27T17:57:00.790Z,102175.25
2024-02-27T17:59:49.362Z,102170.00
2024-02-27T18:02:36.507Z,102181.38
2024-02-27T18:05:23.493Z,102178.09
2024-02-27T18:08:10.412Z,102183.63
2024-02-27T18:10:57.323Z,102182.69
2024-02-27T18:13:44.188Z,102182.69
2024-02-27T18:16:31.103Z,102184.44
2024-02-27T18:19:18.071Z,102190.63
2024-02-27T18:22:07.006Z,102191.56
2024-02-27T18:24:54.336Z,102192.66
2024-02-27T18:27:41.569Z,102194.50
2024-02-27T18:30:28.806Z,102191.81
2024-02-27T18:33:20.174Z,102195.56
2024-02-27T18:36:07.851Z,102192.81
2024-02-27T18:38:54.823Z,102194.56
2024-02-27T18:41:41.692Z,102199.16
2024-02-27T18:44:28.743Z,102197.41
2024-02-27T18:47:18.895Z,102199.97
2024-02-27T18:50:06.837Z,102186.78
2024-02-27T18:52:53.795Z,102188.63
2024-02-27T18:55:40.734Z,102181.56
2024-02-27T18:58:27.498Z,102180.84
2024-02-27T19:01:14.491Z,102192.41
2024-02-27T19:04:01.441Z,102189.00
2024-02-27T19:06:49.578Z,102202.06
2024-02-27T19:09:37.555Z,102201.16
2024-02-27T19:12:24.898Z,102200.44
2024-02-27T19:15:12.977Z,102209.22
2024-02-27T19:18:00.059Z,102210.97
2024-02-27T19:20:47.154Z,102216.41
2024-02-27T19:23:33.980Z,102211.88
2024-02-27T19:26:21.106Z,102208.34
2024-02-27T19:29:08.236Z,102218.13
2024-02-27T19:31:55.331Z,102205.78
2024-02-27T19:34:42.355Z,102210.09
2024-02-27T19:37:29.153Z,102208.53
2024-02-27T19:40:16.192Z,102206.00
2024-02-27T19:43:04.139Z,102197.16
2024-02-27T19:45:51.311Z,102205.97
2024-02-27T19:48:38.724Z,102213.13
2024-02-27T19:51:25.897Z,102203.38
2024-02-27T19:54:12.867Z,102217.44
2024-02-27T19:56:59.704Z,102224.59
2024-02-27T19:59:48.307Z,102228.03
2024-02-27T20:02:35.353Z,102229.06
2024-02-27T20:05:22.326Z,102236.09
2024-02-27T20:08:09.427Z,102230.94
2024-02-27T20:10:56.506Z,102234.38
2024-02-27T20:13:43.424Z,102244.16
2024-02-27T20:16:30.378Z,102238.13
2024-02-27T20:19:17.454Z,102235.59
2024-02-27T20:22:04.665Z,102239.22
2024-02-27T20:24:51.838Z,102249.88
2024-02-27T20:27:40.730Z,102252.63
2024-02-27T20:30:27.948Z,102252.69
2024-02-27T20:33:15.279Z,102241.41
2024-02-27T20:36:03.352Z,102242.28
2024-02-27T20:38:50.877Z,102250.22
2024-02-27T20:41:40.801Z,102248.59
2024-02-27T20:44:28.564Z,102251.09
2024-02-27T20:47:16.908Z,102254.69
2024-02-27T20:50:04.448Z,102253.78
2024-02-27T20:52:51.373Z,102250.34
2024-02-27T20:55:38.713Z,102251.19
2024-02-27T20:58:26.444Z,102252.00
2024-02-27T21:01:14.035Z,102249.47
2024-02-27T21:04:01.175Z,102250.34
2024-02-27T21:06:50.975Z,102260.84
2024-02-27T21:09:38.466Z,102253.09
2024-02-27T21:12:25.438Z,102273.28
2024-02-27T21:15:12.773Z,102267.28
2024-02-27T21:17:59.974Z,102271.72
2024-02-27T21:20:47.202Z,102271.75
2024-02-27T21:23:36.101Z,102274.44
2024-02-27T21:26:23.347Z,102269.22
2024-02-27T21:29:10.926Z,102272.75
2024-02-27T21:31:57.847Z,102273.44
2024-02-27T21:34:44.800Z,102277.78
2024-02-27T21:37:31.706Z,102279.59
2024-02-27T21:40:18.908Z,102288.16
2024-02-27T21:43:05.907Z,102279.34
2024-02-27T21:45:53.163Z,102264.38
2024-02-27T21:48:40.194Z,102277.47
2024-02-27T21:51:27.341Z,102287.06
2024-02-27T21:54:14.402Z,102270.31
2024-02-27T21:57:01.202Z,102279.06
2024-02-27T21:59:48.163Z,102263.28
2024-02-27T22:02:35.124Z,102264.06
2024-02-27T22:05:23.055Z,102267.47
2024-02-27T22:08:10.124Z,102265.66
2024-02-27T22:10:56.956Z,102266.50
2024-02-27T22:13:43.999Z,102263.78
2024-02-27T22:16:30.986Z,102261.06
2024-02-27T22:19:18.368Z,102261.03
2024-02-27T22:22:05.444Z,102262.75
2024-02-27T22:24:52.838Z,102262.75
2024-02-27T22:27:39.902Z,102269.72
2024-02-27T22:30:26.749Z,102268.75
2024-02-27T22:33:13.808Z,102273.94
2024-02-27T22:36:01.139Z,102268.59
2024-02-27T22:38:48.069Z,102262.38
2024-02-27T22:41:35.909Z,102262.38
2024-02-27T22:44:23.114Z,102260.63
2024-02-27T22:47:10.101Z,102256.16
2024-02-27T22:49:57.017Z,102265.78
2024-02-27T22:52:43.974Z,102263.06
2024-02-27T22:55:30.950Z,102269.13
2024-02-27T22:58:17.906Z,102263.00
2024-02-27T23:01:04.999Z,102255.94
2024-02-27T23:03:52.058Z,102255.91
2024-02-27T23:06:39.638Z,102249.75
2024-02-27T23:09:26.775Z,102254.94
2024-02-27T23:12:13.882Z,102251.44
2024-02-27T23:15:00.792Z,102253.09
2024-02-27T23:17:48.347Z,102259.13
2024-02-27T23:20:35.326Z,102260.91
2024-02-27T23:23:22.340Z,102250.41
2024-02-27T23:26:09.345Z,102252.97
2024-02-27T23:28:56.141Z,102253.94
2024-02-27T23:31:43.657Z,102259.94
2024-02-27T23:34:30.632Z,102258.16
2024-02-27T23:37:17.591Z,102265.06
2024-02-27T23:40:06.222Z,102264.19
2024-02-27T23:42:53.292Z,102260.66
2024-02-27T23:45:40.153Z,102259.09
2024-02-27T23:48:27.188Z,102259.09
2024-02-27T23:51:14.037Z,102265.28
2024-02-27T23:54:01.124Z,102258.41
2024-02-27T23:56:48.971Z,102263.72
2024-02-27T23:59:36.457Z,102259.44
